Time;durP1;ratioP1;P1;durP2;ratioP2;P2;SDS_P1;SDS_P2;PMS_P1;PMS_P2;Temp;Humidity;BMP_temperature;BMP_pressure;BME280_temperature;BME280_humidity;BME280_pressure;Samples;Min_cycle;Max_cycle;Signal;HPM_P1;HPM_P2
2021/01/24 00:01:00;;;;;;;3.27;1.83;;;;;;;1.66;100.00;96812.12;3846670;76;396342;-81
2021/01/24 00:06:21;;;;;;;8.10;2.27;;;;;;;1.64;100.00;96813.09;3846787;76;396068;-81
2021/01/24 00:11:42;;;;;;;1.33;1.20;;;;;;;1.60;100.00;96809.64;3847389;76;392016;-81
2021/01/24 00:17:05;;;;;;;4.83;2.43;;;;;;;1.59;100.00;96813.52;3848576;76;396107;-81
2021/01/24 00:22:30;;;;;;;2.03;1.70;;;;;;;1.59;100.00;96810.81;3846721;76;391906;-81
2021/01/24 00:27:51;;;;;;;2.23;1.90;;;;;;;1.61;100.00;96801.11;3847066;76;394062;-81
2021/01/24 00:33:12;;;;;;;2.10;2.00;;;;;;;1.64;100.00;96807.67;3846536;76;394028;-81
2021/01/24 00:38:33;;;;;;;2.50;2.10;;;;;;;1.61;100.00;96799.00;3846754;76;396184;-81
2021/01/24 00:43:54;;;;;;;3.90;3.17;;;;;;;1.57;100.00;96796.12;3846760;76;396268;-81
2021/01/24 00:49:15;;;;;;;3.03;2.47;;;;;;;1.54;100.00;96789.53;3846945;76;395101;-81
2021/01/24 00:54:39;;;;;;;7.23;2.80;;;;;;;1.54;100.00;96788.18;3847267;76;396268;-82
2021/01/24 01:00:01;;;;;;;4.20;3.10;;;;;;;1.61;100.00;96786.22;3846526;76;396047;-82
2021/01/24 01:05:22;;;;;;;4.03;2.20;;;;;;;1.80;100.00;96780.86;3847009;76;395026;-82
2021/01/24 01:10:43;;;;;;;2.60;2.40;;;;;;;1.60;100.00;96784.66;3846591;76;393985;-80
2021/01/24 01:16:05;;;;;;;4.03;3.73;;;;;;;1.67;100.00;96784.63;3799823;76;396039;-81
2021/01/24 01:21:26;;;;;;;7.33;3.60;;;;;;;1.54;100.00;96781.41;3791062;77;396108;-80
2021/01/24 01:26:47;;;;;;;1.53;1.43;;;;;;;1.57;100.00;96781.98;3790737;77;396354;-81
2021/01/24 01:32:09;;;;;;;2.33;1.83;;;;;;;1.78;100.00;96765.58;3790968;77;396072;-80
2021/01/24 01:37:31;;;;;;;3.00;2.13;;;;;;;1.70;100.00;96773.56;3790836;77;396080;-81
2021/01/24 01:42:52;;;;;;;4.50;3.57;;;;;;;1.85;100.00;96776.39;3791502;77;388007;-80
2021/01/24 01:48:16;;;;;;;5.07;1.63;;;;;;;1.78;100.00;96766.93;3790700;77;396040;-80
2021/01/24 01:53:40;;;;;;;11.17;2.73;;;;;;;1.87;100.00;96757.77;3775265;77;393977;-81
2021/01/24 01:59:01;;;;;;;2.70;2.50;;;;;;;1.91;100.00;96754.47;3913926;74;396375;-81
2021/01/24 02:04:30;;;;;;;3.23;2.83;;;;;;;1.87;100.00;96744.22;3913657;75;396350;-80
2021/01/24 02:09:57;;;;;;;4.23;2.63;;;;;;;1.75;100.00;96740.65;3914074;75;396029;-80
2021/01/24 02:15:21;;;;;;;2.17;2.00;;;;;;;1.73;100.00;96745.13;3924835;73;396033;-80
2021/01/24 02:20:45;;;;;;;8.03;3.73;;;;;;;1.78;100.00;96733.06;3935025;74;396036;-80
2021/01/24 02:26:29;;;;;;;5.23;2.43;;;;;;;1.74;100.00;96728.27;3934305;74;396332;-81
2021/01/24 02:31:52;;;;;;;4.23;2.73;;;;;;;1.77;100.00;96724.77;3933848;74;395092;-81
2021/01/24 02:37:16;;;;;;;4.53;2.80;;;;;;;1.71;100.00;96720.35;3934332;73;392069;-81
2021/01/24 02:42:38;;;;;;;3.40;2.63;;;;;;;1.74;100.00;96719.53;3934543;74;396324;-80
2021/01/24 02:48:01;;;;;;;3.10;1.20;;;;;;;1.72;100.00;96715.13;3934087;74;395031;-80
2021/01/24 02:53:23;;;;;;;7.80;2.67;;;;;;;1.74;100.00;96721.48;3934311;73;395020;-80
2021/01/24 02:58:45;;;;;;;2.87;2.30;;;;;;;1.78;100.00;96721.65;3934036;74;396072;-80
2021/01/24 03:04:06;;;;;;;4.63;2.20;;;;;;;1.68;100.00;96707.59;3933881;74;396367;-80
2021/01/24 03:09:27;;;;;;;1.80;1.63;;;;;;;1.77;100.00;96708.51;3934066;74;396329;-80
2021/01/24 03:14:49;;;;;;;5.07;1.77;;;;;;;1.76;100.00;96711.03;3936611;74;396122;-80
2021/01/24 03:20:12;;;;;;;5.03;2.93;;;;;;;1.88;100.00;96705.11;3940205;74;396414;-80
2021/01/24 03:25:35;;;;;;;3.00;2.37;;;;;;;1.82;100.00;96695.88;3939828;74;396079;-80
2021/01/24 03:30:57;;;;;;;1.37;1.27;;;;;;;1.87;100.00;96698.93;3929694;74;395064;-80
2021/01/24 03:36:18;;;;;;;1.33;1.23;;;;;;;2.04;100.00;96698.58;3828391;76;396039;-79
2021/01/24 03:41:39;;;;;;;2.80;2.20;;;;;;;2.18;100.00;96701.94;3927473;75;396314;-80
2021/01/24 03:47:00;;;;;;;1.10;0.77;;;;;;;2.20;100.00;96700.17;3828943;76;387800;-80
2021/01/24 03:52:21;;;;;;;0.90;0.70;;;;;;;2.23;100.00;96687.93;3928600;75;390065;-80
2021/01/24 03:57:42;;;;;;;1.23;1.00;;;;;;;2.32;100.00;96684.77;3828283;76;396055;-80
2021/01/24 04:03:04;;;;;;;1.27;0.60;;;;;;;2.34;100.00;96689.36;3928343;75;390134;-81
2021/01/24 04:08:25;;;;;;;1.20;0.77;;;;;;;2.31;100.00;96694.83;3828918;76;389775;-81
2021/01/24 04:13:46;;;;;;;0.80;0.50;;;;;;;2.28;100.00;96690.80;3928928;75;383568;-81
2021/01/24 04:19:07;;;;;;;4.10;1.17;;;;;;;2.29;100.00;96688.27;3828253;76;393192;-81
2021/01/24 04:24:29;;;;;;;0.90;0.70;;;;;;;2.19;100.00;96699.41;3928860;75;383576;-81
2021/01/24 04:29:50;;;;;;;0.80;0.50;;;;;;;2.21;100.00;96697.65;3829207;76;383831;-81
2021/01/24 04:35:12;;;;;;;1.23;1.13;;;;;;;2.19;100.00;96710.27;3927683;75;396138;-81
2021/01/24 04:40:33;;;;;;;1.30;0.93;;;;;;;2.19;100.00;96702.13;3828760;76;383820;-81
2021/01/24 04:45:57;;;;;;;0.80;0.50;;;;;;;2.24;100.00;96707.70;3928679;75;383600;-81
2021/01/24 04:51:18;;;;;;;0.90;0.80;;;;;;;2.27;100.00;96720.44;3829405;76;389939;-80
2021/01/24 04:56:39;;;;;;;1.47;1.07;;;;;;;2.24;100.00;96725.33;3927585;75;396130;-80
2021/01/24 05:02:01;;;;;;;0.80;0.40;;;;;;;2.16;100.00;96724.61;3829551;76;383815;-81
2021/01/24 05:07:23;;;;;;;0.90;0.60;;;;;;;2.12;100.00;96727.17;3928527;75;383577;-80
2021/01/24 05:12:47;;;;;;;4.33;0.90;;;;;;;2.02;100.00;96737.54;3828790;76;383600;-81
2021/01/24 05:18:08;;;;;;;0.80;0.50;;;;;;;1.88;100.00;96743.05;3928461;74;383793;-80
2021/01/24 05:23:29;;;;;;;0.80;0.40;;;;;;;1.72;100.00;96746.85;3829557;76;383769;-81
2021/01/24 05:28:50;;;;;;;0.80;0.40;;;;;;;1.65;100.00;96764.52;3928991;75;383581;-81
2021/01/24 05:34:11;;;;;;;0.80;0.40;;;;;;;1.51;100.00;96770.03;3829502;76;383540;-81
2021/01/24 05:39:33;;;;;;;0.80;0.40;;;;;;;1.47;100.00;96777.39;3928725;75;383809;-80
2021/01/24 05:44:55;;;;;;;0.80;0.40;;;;;;;1.46;100.00;96785.32;3829533;76;383840;-80
2021/01/24 05:50:18;;;;;;;0.80;0.40;;;;;;;1.47;100.00;96796.34;3928866;75;383801;-80
2021/01/24 05:55:39;;;;;;;1.00;0.50;;;;;;;1.43;100.00;96802.95;3829099;76;387800;-80
2021/01/24 06:01:01;;;;;;;0.80;0.40;;;;;;;1.34;100.00;96812.87;3928739;75;383585;-80
2021/01/24 06:06:23;;;;;;;0.80;0.40;;;;;;;1.31;100.00;96803.41;3829215;76;383541;-81
2021/01/24 06:11:46;;;;;;;0.90;0.70;;;;;;;1.25;100.00;96813.11;3929229;75;383585;-80
2021/01/24 06:17:28;;;;;;;0.80;0.40;;;;;;;1.24;100.00;96825.11;3814667;76;383599;-80
2021/01/24 06:22:59;;;;;;;0.80;0.40;;;;;;;1.20;100.00;96827.83;3913178;74;383790;-79
2021/01/24 06:28:23;;;;;;;0.80;0.40;;;;;;;1.19;100.00;96827.63;3915154;75;383581;-80
2021/01/24 06:33:45;;;;;;;0.90;0.50;;;;;;;1.17;100.00;96836.72;3914890;74;383596;-80
2021/01/24 06:39:06;;;;;;;0.80;0.40;;;;;;;1.15;100.00;96839.05;3915601;74;383868;-80
2021/01/24 06:44:36;;;;;;;0.80;0.40;;;;;;;1.14;100.00;96850.27;3915868;74;383804;-80
2021/01/24 06:49:57;;;;;;;0.80;0.50;;;;;;;1.08;100.00;96858.02;3915118;75;383581;-81
2021/01/24 06:55:27;;;;;;;0.80;0.40;;;;;;;1.07;100.00;96863.23;3913416;74;383580;-81
2021/01/24 07:00:48;;;;;;;0.80;0.47;;;;;;;1.08;100.00;96869.44;3915430;75;383794;-80
2021/01/24 07:06:31;;;;;;;0.80;0.40;;;;;;;1.04;100.00;96878.92;3915548;74;383793;-82
2021/01/24 07:11:56;;;;;;;0.80;0.40;;;;;;;0.96;100.00;96892.84;3913182;74;383868;-81
2021/01/24 07:17:19;;;;;;;0.80;0.40;;;;;;;0.89;100.00;96886.09;3913164;74;383576;-81
2021/01/24 07:22:40;;;;;;;1.10;0.80;;;;;;;0.89;100.00;96892.86;3914706;74;393150;-80
2021/01/24 07:28:02;;;;;;;1.00;0.47;;;;;;;0.88;100.00;96904.28;3912699;74;388030;-80
2021/01/24 07:33:24;;;;;;;0.90;0.40;;;;;;;0.91;100.00;96908.90;3913296;75;383845;-81
2021/01/24 07:38:46;;;;;;;1.20;1.10;;;;;;;0.93;100.00;96905.80;3915121;74;383837;-80
2021/01/24 07:44:07;;;;;;;0.80;0.40;;;;;;;0.91;100.00;96921.67;3913146;75;383573;-81
2021/01/24 07:49:29;;;;;;;1.27;0.73;;;;;;;0.91;100.00;96918.37;3912537;74;394263;-81
2021/01/24 07:54:50;;;;;;;1.83;1.10;;;;;;;0.87;100.00;96927.09;3915353;74;383836;-80
2021/01/24 08:00:13;;;;;;;0.80;0.50;;;;;;;0.85;100.00;96923.98;3914984;74;383568;-81
2021/01/24 08:05:34;;;;;;;0.80;0.40;;;;;;;0.84;100.00;96937.32;3884736;75;383569;-80
2021/01/24 08:10:58;;;;;;;0.80;0.50;;;;;;;0.84;100.00;96960.91;3913121;74;383810;-80
2021/01/24 08:16:22;;;;;;;1.27;0.70;;;;;;;0.84;100.00;96948.14;3914446;74;393993;-80
2021/01/24 08:21:44;;;;;;;1.20;0.60;;;;;;;0.83;100.00;96945.24;3913110;74;383971;-80
2021/01/24 08:27:06;;;;;;;0.80;0.50;;;;;;;0.85;100.00;96959.16;3913125;74;383821;-79
2021/01/24 08:32:27;;;;;;;0.80;0.40;;;;;;;0.81;100.00;96956.27;3915179;74;383580;-80
2021/01/24 08:37:49;;;;;;;1.40;1.30;;;;;;;0.77;100.00;96966.30;3912963;75;383537;-81
2021/01/24 08:43:11;;;;;;;1.93;1.07;;;;;;;0.72;100.00;96977.52;3913068;74;383868;-81
2021/01/24 08:48:32;;;;;;;1.37;0.77;;;;;;;0.72;100.00;96978.11;3912562;74;387767;-81
2021/01/24 08:53:53;;;;;;;0.80;0.40;;;;;;;0.68;100.00;96983.52;3913303;75;383876;-81
2021/01/24 08:59:26;;;;;;;0.80;0.40;;;;;;;0.64;100.00;96980.63;3913056;75;383876;-81
2021/01/24 09:04:48;;;;;;;1.47;0.87;;;;;;;0.68;100.00;96981.38;3911933;75;394002;-81
2021/01/24 09:10:20;;;;;;;0.80;0.40;;;;;;;0.62;100.00;96992.39;3915279;75;383770;-81
2021/01/24 09:15:41;;;;;;;1.63;1.53;;;;;;;0.65;100.00;96995.10;3915002;74;383600;-81
2021/01/24 09:21:06;;;;;;;1.00;0.90;;;;;;;0.63;100.00;96996.66;3912673;74;393974;-81
2021/01/24 09:26:27;;;;;;;0.90;0.60;;;;;;;0.60;100.00;97014.99;3913260;75;383577;-81
2021/01/24 09:31:48;;;;;;;1.00;0.70;;;;;;;0.60;100.00;97017.13;3912498;75;391900;-82
2021/01/24 09:37:10;;;;;;;0.80;0.50;;;;;;;0.55;100.00;97022.14;3913129;74;383572;-82
2021/01/24 09:42:32;;;;;;;0.80;0.60;;;;;;;0.58;100.00;97017.30;3913722;75;383840;-81
2021/01/24 09:47:54;;;;;;;1.10;0.60;;;;;;;0.63;100.00;97018.29;3914847;75;389053;-82
2021/01/24 09:53:15;;;;;;;0.80;0.63;;;;;;;0.62;100.00;97009.98;3915328;74;383679;-82
2021/01/24 09:58:36;;;;;;;0.90;0.60;;;;;;;0.58;100.00;97026.77;3915551;74;387791;-82
2021/01/24 10:03:58;;;;;;;1.33;1.23;;;;;;;0.56;100.00;97023.10;3912219;75;395066;-82
2021/01/24 10:09:21;;;;;;;0.80;0.67;;;;;;;0.58;100.00;97017.30;3913733;75;383820;-83
2021/01/24 10:14:41;;;;;;;0.80;0.40;;;;;;;0.58;100.00;97020.00;3915614;75;383573;-82
2021/01/24 10:20:03;;;;;;;1.07;0.90;;;;;;;0.62;100.00;97031.03;3915418;74;383810;-82
2021/01/24 10:25:24;;;;;;;0.80;0.40;;;;;;;0.52;100.00;97040.48;3915625;74;383801;-83
2021/01/24 10:30:46;;;;;;;0.80;0.40;;;;;;;0.57;100.00;97052.27;3913374;74;383797;-82
2021/01/24 10:36:07;;;;;;;0.90;0.70;;;;;;;0.47;100.00;97049.73;3914837;74;392115;-83
2021/01/24 10:41:29;;;;;;;0.73;0.40;;;;;;;0.48;100.00;97061.34;3915144;74;383580;-83
2021/01/24 10:46:50;;;;;;;0.70;0.40;;;;;;;0.46;100.00;97069.82;3915143;74;383581;-83
2021/01/24 10:52:12;;;;;;;0.80;0.40;;;;;;;0.50;100.00;97067.91;3913583;74;383796;-82
2021/01/24 10:57:33;;;;;;;0.90;0.70;;;;;;;0.50;100.00;97073.89;3913381;75;383581;-82
2021/01/24 11:02:54;;;;;;;0.80;0.50;;;;;;;0.49;100.00;97077.74;3915432;75;383584;-83
2021/01/24 11:08:15;;;;;;;0.80;0.60;;;;;;;0.50;100.00;97067.13;3915276;75;389813;-83
2021/01/24 11:13:36;;;;;;;0.80;0.50;;;;;;;0.56;100.00;97082.61;3915172;75;383564;-85
2021/01/24 11:18:57;;;;;;;0.80;0.40;;;;;;;0.60;100.00;97081.27;3916104;74;383581;-83
2021/01/24 11:24:18;;;;;;;0.80;0.50;;;;;;;0.58;100.00;97091.13;3913935;74;383541;-84
2021/01/24 11:29:41;;;;;;;0.80;0.50;;;;;;;0.67;100.00;97099.66;3913937;74;383537;-85
2021/01/24 11:35:03;;;;;;;1.67;1.57;;;;;;;0.72;100.00;97110.67;3914227;75;383568;-85
2021/01/24 11:40:24;;;;;;;0.83;0.60;;;;;;;0.77;100.00;97114.36;3916115;75;383840;-86
2021/01/24 11:45:45;;;;;;;0.80;0.43;;;;;;;0.80;100.00;97118.42;3916337;74;383822;-85
2021/01/24 11:51:08;;;;;;;0.80;0.40;;;;;;;0.85;100.00;97141.03;3916067;74;383814;-86
2021/01/24 11:56:29;;;;;;;0.90;0.67;;;;;;;0.97;100.00;97154.22;3915289;75;389873;-83
2021/01/24 12:01:50;;;;;;;0.80;0.50;;;;;;;0.97;100.00;97152.28;3915093;74;383573;-84
2021/01/24 12:07:13;;;;;;;0.90;0.77;;;;;;;0.96;100.00;97157.52;3912821;75;383797;-83
2021/01/24 12:12:34;;;;;;;0.80;0.40;;;;;;;0.99;100.00;97167.56;3915351;75;383539;-83
2021/01/24 12:17:55;;;;;;;1.00;0.90;;;;;;;0.96;100.00;97167.00;3912858;74;383534;-82
2021/01/24 12:23:16;;;;;;;0.90;0.67;;;;;;;1.02;100.00;97169.52;3943126;74;383777;-82
2021/01/24 12:28:37;;;;;;;1.30;1.13;;;;;;;1.12;100.00;97179.60;3940297;74;396071;-82
2021/01/24 12:33:58;;;;;;;0.80;0.50;;;;;;;1.09;100.00;97191.78;3941144;74;383821;-81
2021/01/24 12:39:19;;;;;;;3.57;0.80;;;;;;;1.13;100.00;97190.59;3942449;74;393941;-82
2021/01/24 12:44:41;;;;;;;0.77;0.40;;;;;;;1.17;100.00;97202.82;3930621;74;383577;-82
2021/01/24 12:50:02;;;;;;;0.80;0.40;;;;;;;1.17;100.00;97209.59;3829560;76;383607;-82
2021/01/24 12:55:23;;;;;;;2.00;1.90;;;;;;;1.19;100.00;97216.16;3927873;75;383837;-82
2021/01/24 13:00:44;;;;;;;0.93;0.63;;;;;;;1.12;100.00;97226.98;3828268;76;392138;-83
2021/01/24 13:06:06;;;;;;;0.80;0.40;;;;;;;1.09;100.00;97229.68;3928901;75;383584;-82
2021/01/24 13:11:28;;;;;;;0.73;0.40;;;;;;;1.13;100.00;97231.21;3829571;76;383816;-81
2021/01/24 13:16:50;;;;;;;0.80;0.40;;;;;;;1.11;100.00;97240.31;3929100;75;383548;-81
2021/01/24 13:22:11;;;;;;;1.20;0.70;;;;;;;1.08;100.00;97251.90;3807743;76;394016;-80
2021/01/24 13:27:32;;;;;;;0.80;0.43;;;;;;;1.07;100.00;97262.53;3913422;75;383568;-80
2021/01/24 13:32:53;;;;;;;0.80;0.60;;;;;;;1.07;100.00;97264.47;3913798;74;383836;-80
2021/01/24 13:38:14;;;;;;;0.80;0.40;;;;;;;1.06;100.00;97273.75;3915497;74;383584;-80
2021/01/24 13:43:36;;;;;;;1.20;0.93;;;;;;;1.07;100.00;97284.19;3894393;75;383794;-80
2021/01/24 13:48:57;;;;;;;0.90;0.67;;;;;;;1.15;100.00;97302.01;3886954;75;383787;-80
2021/01/24 13:54:19;;;;;;;0.90;0.60;;;;;;;1.15;100.00;97306.66;3864193;74;383819;-80
2021/01/24 13:59:40;;;;;;;1.37;1.27;;;;;;;1.20;100.00;97315.76;3898008;75;383585;-82
2021/01/24 14:05:01;;;;;;;0.80;0.43;;;;;;;1.33;100.00;97327.23;3848762;75;383837;-80
2021/01/24 14:10:24;;;;;;;0.90;0.70;;;;;;;1.34;100.00;97337.47;3871585;75;383581;-80
2021/01/24 14:15:45;;;;;;;0.80;0.50;;;;;;;1.34;100.00;97347.75;3911553;75;383842;-79
2021/01/24 14:21:06;;;;;;;2.20;1.63;;;;;;;1.31;100.00;97355.86;3893413;74;391885;-79
2021/01/24 14:26:28;;;;;;;1.77;1.63;;;;;;;1.36;100.00;97361.69;3870118;75;396137;-79
2021/01/24 14:31:49;;;;;;;0.80;0.50;;;;;;;1.37;100.00;97373.29;3854218;75;383575;-79
2021/01/24 14:37:10;;;;;;;2.50;0.80;;;;;;;1.33;100.00;97369.80;3914003;75;390149;-79
2021/01/24 14:42:32;;;;;;;0.80;0.40;;;;;;;1.35;100.00;97387.22;3919859;75;383675;-78
2021/01/24 14:47:53;;;;;;;1.20;0.90;;;;;;;1.36;100.00;97388.78;3918921;75;389956;-79
2021/01/24 14:53:14;;;;;;;1.80;1.03;;;;;;;1.45;100.00;97398.69;3871864;75;395325;-78
2021/01/24 14:58:36;;;;;;;6.20;1.93;;;;;;;1.45;100.00;97400.05;3853641;76;387776;-78
2021/01/24 15:03:57;;;;;;;1.43;0.80;;;;;;;1.61;100.00;97417.52;3871999;75;393984;-78
2021/01/24 15:09:18;;;;;;;0.80;0.40;;;;;;;1.72;100.00;97425.13;3852418;75;383543;-79
2021/01/24 15:14:39;;;;;;;1.80;1.23;;;;;;;1.75;100.00;97434.42;3852296;75;388001;-78
2021/01/24 15:20:00;;;;;;;0.80;0.50;;;;;;;1.70;100.00;97436.12;3852791;75;383595;-78
2021/01/24 15:25:21;;;;;;;2.00;1.07;;;;;;;1.65;100.00;97458.17;3851449;76;394011;-78
2021/01/24 15:30:43;;;;;;;1.20;0.83;;;;;;;1.73;100.00;97465.98;3851686;76;393975;-78
2021/01/24 15:36:04;;;;;;;0.80;0.50;;;;;;;1.73;100.00;97480.09;3852342;76;383579;-78
2021/01/24 15:41:27;;;;;;;2.93;0.93;;;;;;;1.72;100.00;97487.45;3851453;76;389874;-78
2021/01/24 15:46:48;;;;;;;1.73;1.07;;;;;;;1.71;100.00;97494.59;3851324;75;394040;-77
2021/01/24 15:52:09;;;;;;;1.97;0.97;;;;;;;1.62;100.00;97509.06;3853595;75;396083;-78
2021/01/24 15:57:30;;;;;;;0.90;0.70;;;;;;;1.66;100.00;97510.63;3851892;76;383783;-77
2021/01/24 16:02:53;;;;;;;1.73;0.73;;;;;;;1.65;100.00;97513.73;3852168;75;388745;-77
2021/01/24 16:08:14;;;;;;;1.10;0.97;;;;;;;1.61;100.00;97519.13;3855398;73;394007;-77
2021/01/24 16:13:36;;;;;;;0.80;0.60;;;;;;;1.55;100.00;97523.92;3852151;75;383863;-77
2021/01/24 16:18:57;;;;;;;0.90;0.70;;;;;;;1.58;100.00;97518.52;3852613;75;383583;-78
2021/01/24 16:24:18;;;;;;;0.80;0.77;;;;;;;1.51;100.00;97524.50;3834162;75;383575;-78
2021/01/24 16:29:39;;;;;;;0.80;0.40;;;;;;;1.53;100.00;97530.32;3827667;75;383842;-77
2021/01/24 16:35:01;;;;;;;2.50;1.43;;;;;;;1.51;100.00;97528.56;3826590;75;396020;-78
2021/01/24 16:40:22;;;;;;;2.10;2.00;;;;;;;1.47;100.00;97533.75;3826250;75;396349;-77
2021/01/24 16:45:43;;;;;;;0.80;0.57;;;;;;;1.47;100.00;97539.17;3827555;75;383580;-78
2021/01/24 16:51:04;;;;;;;1.27;1.17;;;;;;;1.53;100.00;97543.87;3826271;75;394036;-78
2021/01/24 16:56:26;;;;;;;5.73;2.50;;;;;;;1.55;100.00;97546.19;3828555;75;383795;-77
2021/01/24 17:01:47;;;;;;;1.43;1.33;;;;;;;1.53;100.00;97553.91;3826506;77;396354;-78
2021/01/24 17:07:08;;;;;;;1.07;0.83;;;;;;;1.53;100.00;97564.75;3826784;75;385915;-78
2021/01/24 17:12:29;;;;;;;0.80;0.50;;;;;;;1.55;100.00;97575.41;3827165;75;383797;-78
2021/01/24 17:17:52;;;;;;;1.37;0.83;;;;;;;1.51;100.00;97573.82;3826676;75;394008;-78
2021/01/24 17:23:13;;;;;;;1.40;1.30;;;;;;;1.31;100.00;97584.13;3826977;75;391902;-77
2021/01/24 17:28:34;;;;;;;0.97;0.60;;;;;;;1.32;100.00;97585.69;3829227;75;383578;-77
2021/01/24 17:33:55;;;;;;;3.37;2.33;;;;;;;1.28;100.00;97600.34;3828294;75;391910;-77
2021/01/24 17:39:17;;;;;;;1.20;0.70;;;;;;;1.13;100.00;97604.86;3829373;75;383588;-77
2021/01/24 17:44:38;;;;;;;6.57;1.37;;;;;;;1.18;100.00;97605.89;3828225;75;389880;-77
2021/01/24 17:49:59;;;;;;;0.90;0.80;;;;;;;1.13;100.00;97607.56;3829319;75;383606;-77
2021/01/24 17:55:20;;;;;;;1.40;0.90;;;;;;;1.12;100.00;97607.95;3828909;76;383572;-76
2021/01/24 18:00:42;;;;;;;1.30;1.20;;;;;;;1.04;100.00;97607.68;3828129;75;396144;-77
2021/01/24 18:06:03;;;;;;;3.37;1.87;;;;;;;0.97;100.00;97613.03;3828284;75;393989;-76
2021/01/24 18:11:24;;;;;;;3.57;2.17;;;;;;;0.93;100.00;97613.00;3828491;75;394212;-77
2021/01/24 18:16:45;;;;;;;2.47;1.43;;;;;;;0.89;100.00;97615.47;3828448;75;396318;-76
2021/01/24 18:22:06;;;;;;;1.63;1.53;;;;;;;0.77;100.00;97601.42;3828124;75;396098;-76
2021/01/24 18:27:28;;;;;;;2.60;1.23;;;;;;;0.78;100.00;97608.39;3826718;75;388778;-76
2021/01/24 18:32:50;;;;;;;1.30;1.20;;;;;;;0.62;100.00;97606.48;3828889;75;392118;-76
2021/01/24 18:38:13;;;;;;;1.17;1.07;;;;;;;0.53;100.00;97607.34;3826801;75;395002;-76
2021/01/24 18:43:34;;;;;;;3.53;1.00;;;;;;;0.50;100.00;97602.66;3826474;75;394298;-76
2021/01/24 18:48:55;;;;;;;9.17;3.50;;;;;;;0.46;100.00;97607.27;3828805;76;396182;-76
2021/01/24 18:54:16;;;;;;;2.27;2.10;;;;;;;0.41;100.00;97597.55;3828382;75;396036;-76
2021/01/24 18:59:37;;;;;;;1.43;1.33;;;;;;;0.35;100.00;97594.18;3826449;75;391863;-75
2021/01/24 19:04:58;;;;;;;2.10;1.40;;;;;;;0.34;100.00;97603.44;3827827;75;395333;-76
2021/01/24 19:10:20;;;;;;;1.67;1.57;;;;;;;0.31;100.00;97606.89;3826279;75;393985;-75
2021/01/24 19:15:41;;;;;;;4.13;1.87;;;;;;;0.39;100.00;97603.89;3826794;76;383870;-75
2021/01/24 19:21:02;;;;;;;2.40;2.20;;;;;;;0.46;100.00;97608.61;3826048;75;391851;-75
2021/01/24 19:26:23;;;;;;;3.17;1.80;;;;;;;0.52;100.00;97612.54;3857063;76;396318;-76
2021/01/24 19:31:45;;;;;;;1.47;1.20;;;;;;;0.49;100.00;97610.00;3867185;75;391858;-76
2021/01/24 19:37:06;;;;;;;1.63;1.53;;;;;;;0.57;100.00;97613.00;3866689;75;396085;-76
2021/01/24 19:42:28;;;;;;;2.90;1.60;;;;;;;0.67;100.00;97604.78;3866629;75;393955;-76
2021/01/24 19:47:49;;;;;;;9.73;2.00;;;;;;;0.59;100.00;97619.38;3866648;75;400629;-76
2021/01/24 19:53:10;;;;;;;2.57;1.50;;;;;;;0.47;100.00;97616.94;3866398;75;396070;-76
2021/01/24 19:58:31;;;;;;;1.30;0.90;;;;;;;0.56;100.00;97612.02;3867285;75;388736;-76
2021/01/24 20:03:53;;;;;;;1.63;1.50;;;;;;;0.62;100.00;97618.66;3866733;75;396076;-76
2021/01/24 20:09:14;;;;;;;2.33;0.87;;;;;;;0.78;100.00;97611.09;3867233;75;394215;-76
2021/01/24 20:14:36;;;;;;;1.03;0.90;;;;;;;0.79;100.00;97622.34;3867509;75;383810;-75
2021/01/24 20:19:57;;;;;;;1.57;1.07;;;;;;;0.67;100.00;97634.55;3866959;75;389874;-77
2021/01/24 20:25:18;;;;;;;1.10;1.00;;;;;;;0.99;100.00;97645.93;3849063;75;391893;-76
2021/01/24 20:30:39;;;;;;;5.67;3.27;;;;;;;0.92;100.00;97637.16;3829041;75;385635;-76
2021/01/24 20:36:00;;;;;;;1.73;1.10;;;;;;;0.89;100.00;97643.30;3828512;75;395025;-76
2021/01/24 20:41:22;;;;;;;1.13;1.03;;;;;;;0.89;100.00;97645.23;3828793;76;391956;-76
2021/01/24 20:46:43;;;;;;;0.80;0.50;;;;;;;0.91;100.00;97647.01;3829436;75;383788;-76
2021/01/24 20:52:04;;;;;;;1.53;1.43;;;;;;;0.87;100.00;97647.53;3828719;75;391924;-75
2021/01/24 20:57:25;;;;;;;1.40;0.83;;;;;;;0.86;100.00;97648.12;3828813;75;393999;-76
2021/01/24 21:02:46;;;;;;;1.20;1.10;;;;;;;0.82;100.00;97648.64;3828533;75;395053;-76
2021/01/24 21:08:07;;;;;;;1.40;1.30;;;;;;;0.82;100.00;97649.23;3828994;75;391912;-75
2021/01/24 21:13:28;;;;;;;1.03;0.60;;;;;;;0.77;100.00;97643.36;3829057;75;383911;-76
2021/01/24 21:18:51;;;;;;;0.90;0.70;;;;;;;0.81;100.00;97648.43;3829386;75;385670;-76
2021/01/24 21:24:14;;;;;;;1.27;1.17;;;;;;;0.74;100.00;97642.18;3833974;75;383830;-76
2021/01/24 21:29:36;;;;;;;1.10;1.00;;;;;;;0.75;100.00;97644.30;3867414;75;383569;-76
2021/01/24 21:34:57;;;;;;;1.50;1.40;;;;;;;0.76;100.00;97643.16;3867165;75;391901;-76
2021/01/24 21:40:19;;;;;;;1.50;1.13;;;;;;;0.67;100.00;97633.19;3867075;75;396358;-76
2021/01/24 21:45:40;;;;;;;1.53;1.43;;;;;;;0.64;100.00;97633.95;3866525;75;396117;-76
2021/01/24 21:51:01;;;;;;;1.10;0.80;;;;;;;0.67;100.00;97630.48;3867271;75;391952;-76
2021/01/24 21:56:23;;;;;;;2.50;1.03;;;;;;;0.61;100.00;97627.33;3867115;75;383562;-76
2021/01/24 22:01:44;;;;;;;1.67;1.17;;;;;;;0.61;100.00;97637.38;3866971;75;393955;-76
2021/01/24 22:07:05;;;;;;;1.23;1.13;;;;;;;0.67;100.00;97636.70;3867555;75;383598;-77
2021/01/24 22:12:26;;;;;;;0.87;0.57;;;;;;;0.54;100.00;97642.12;3867901;75;383581;-76
2021/01/24 22:17:47;;;;;;;1.63;1.53;;;;;;;0.45;100.00;97635.45;3866648;75;396093;-76
2021/01/24 22:23:08;;;;;;;1.07;0.97;;;;;;;0.35;100.00;97642.30;3867339;75;391913;-76
2021/01/24 22:28:30;;;;;;;0.80;0.60;;;;;;;0.33;100.00;97631.62;3868079;75;383979;-76
2021/01/24 22:33:51;;;;;;;1.03;0.93;;;;;;;0.47;100.00;97626.41;3867069;75;392168;-76
2021/01/24 22:39:13;;;;;;;1.20;1.10;;;;;;;0.55;100.00;97620.70;3867081;75;388040;-76
2021/01/24 22:44:34;;;;;;;2.47;2.27;;;;;;;0.35;100.00;97617.97;3867128;75;392973;-76
2021/01/24 22:49:55;;;;;;;0.80;0.60;;;;;;;0.12;100.00;97613.20;3867620;75;383872;-76
2021/01/24 22:55:16;;;;;;;2.13;1.50;;;;;;;0.23;100.00;97606.60;3867180;75;387966;-76
2021/01/24 23:00:37;;;;;;;1.70;1.40;;;;;;;0.26;100.00;97598.53;3867236;75;395001;-77
2021/01/24 23:06:00;;;;;;;1.73;1.33;;;;;;;0.11;100.00;97598.16;3867249;75;391916;-75
2021/01/24 23:11:21;;;;;;;1.00;0.63;;;;;;;-0.15;100.00;97598.75;3867508;75;390078;-76
2021/01/24 23:16:42;;;;;;;8.13;1.97;;;;;;;-0.32;100.00;97588.47;3866646;75;396134;-76
2021/01/24 23:22:04;;;;;;;2.47;2.30;;;;;;;-0.42;100.00;97589.11;3866463;75;396329;-76
2021/01/24 23:27:25;;;;;;;1.73;1.63;;;;;;;-0.51;100.00;97585.89;3845115;75;396170;-75
2021/01/24 23:32:46;;;;;;;7.17;2.50;;;;;;;-0.51;100.00;97573.74;3828483;75;393980;-76
2021/01/24 23:38:07;;;;;;;0.80;0.40;;;;;;;-0.60;100.00;97573.22;3829856;75;383540;-75
2021/01/24 23:43:29;;;;;;;3.83;2.23;;;;;;;-0.43;100.00;97562.45;3828561;75;394216;-76
2021/01/24 23:48:50;;;;;;;1.67;1.57;;;;;;;-0.46;100.00;97563.20;3828255;75;396104;-75
2021/01/24 23:54:11;;;;;;;3.47;1.27;;;;;;;-0.68;100.00;97566.70;3828807;75;389836;-75
2021/01/24 23:59:32;;;;;;;4.00;1.00;;;;;;;-0.73;100.00;97559.69;3829414;75;383580;-76
